createdAt,value
2018-02-13T00:00:05.776Z,976.82
2018-02-13T00:01:06.049Z,976.82
2018-02-13T00:02:05.959Z,976.69
2018-02-13T00:03:05.492Z,976.74
2018-02-13T00:04:05.125Z,976.88
2018-02-13T00:05:05.230Z,976.72
2018-02-13T00:06:05.658Z,976.77
2018-02-13T00:07:05.372Z,976.99
2018-02-13T00:08:05.103Z,976.82
2018-02-13T00:09:05.893Z,976.80
2018-02-13T00:10:05.900Z,976.80
2018-02-13T00:11:05.287Z,976.73
2018-02-13T00:12:05.975Z,976.80
2018-02-13T00:13:05.597Z,976.73
2018-02-13T00:14:05.329Z,976.83
2018-02-13T00:15:05.773Z,976.74
2018-02-13T00:16:05.575Z,976.97
2018-02-13T00:17:05.278Z,976.83
2018-02-13T00:18:10.582Z,976.83
2018-02-13T00:19:05.775Z,976.70
2018-02-13T00:20:05.927Z,976.86
2018-02-13T00:21:06.005Z,976.80
2018-02-13T00:22:05.160Z,976.80
2018-02-13T00:23:05.819Z,976.97
2018-02-13T00:24:05.352Z,976.86
2018-02-13T00:25:05.663Z,976.83
2018-02-13T00:26:05.648Z,976.92
2018-02-13T00:27:05.975Z,976.97
2018-02-13T00:28:05.209Z,976.89
2018-02-13T00:29:05.673Z,976.86
2018-02-13T00:30:05.089Z,976.94
2018-02-13T00:31:05.312Z,976.97
2018-02-13T00:32:05.671Z,976.86
2018-02-13T00:33:05.193Z,977.03
2018-02-13T00:34:06.108Z,976.86
2018-02-13T00:35:05.210Z,976.86
2018-02-13T00:36:05.056Z,976.75
2018-02-13T00:37:05.154Z,976.89
2018-02-13T00:38:05.296Z,976.97
2018-02-13T00:39:05.437Z,976.84
2018-02-13T00:40:05.501Z,976.89
2018-02-13T00:41:05.644Z,977.00
2018-02-13T00:42:05.739Z,976.98
2018-02-13T00:43:05.123Z,976.90
2018-02-13T00:44:06.651Z,977.01
2018-02-13T00:45:05.878Z,977.04
2018-02-13T00:46:05.130Z,976.98
2018-02-13T00:47:05.389Z,977.15
2018-02-13T00:48:05.276Z,976.96
2018-02-13T00:49:05.430Z,977.01
2018-02-13T00:50:05.258Z,977.01
2018-02-13T00:51:05.183Z,977.01
2018-02-13T00:52:05.381Z,976.99
2018-02-13T00:53:05.784Z,977.04
2018-02-13T00:54:05.147Z,976.96
2018-02-13T00:55:10.874Z,977.01
2018-02-13T00:56:05.034Z,976.96
2018-02-13T00:57:05.052Z,976.99
2018-02-13T00:58:05.046Z,977.12
2018-02-13T00:59:05.952Z,976.96
2018-02-13T01:00:05.077Z,977.04
2018-02-13T01:01:05.064Z,977.12
2018-02-13T01:02:05.330Z,976.93
2018-02-13T01:03:05.645Z,977.10
2018-02-13T01:04:05.722Z,977.15
2018-02-13T01:05:05.238Z,977.01
2018-02-13T01:06:05.844Z,977.12
2018-02-13T01:07:05.891Z,977.18
2018-02-13T01:08:05.517Z,977.04
2018-02-13T01:09:06.135Z,977.04
2018-02-13T01:10:05.271Z,977.18
2018-02-13T01:11:05.418Z,977.10
2018-02-13T01:12:05.545Z,977.12
2018-02-13T01:13:05.483Z,976.90
2018-02-13T01:14:05.845Z,977.04
2018-02-13T01:15:05.081Z,977.04
2018-02-13T01:16:05.881Z,976.93
2018-02-13T01:17:10.895Z,976.90
2018-02-13T01:18:05.488Z,977.07
2018-02-13T01:19:11.125Z,976.96
2018-02-13T01:20:05.102Z,976.93
2018-02-13T01:21:05.027Z,976.91
2018-02-13T01:22:05.266Z,976.96
2018-02-13T01:23:05.662Z,976.93
2018-02-13T01:24:05.548Z,977.15
2018-02-13T01:25:05.908Z,977.02
2018-02-13T01:26:05.910Z,977.13
2018-02-13T01:27:05.171Z,976.99
2018-02-13T01:28:05.308Z,977.07
2018-02-13T01:29:05.016Z,977.04
2018-02-13T01:30:05.506Z,977.07
2018-02-13T01:31:05.980Z,976.93
2018-02-13T01:32:04.954Z,977.10
2018-02-13T01:33:05.451Z,976.93
2018-02-13T01:34:06.070Z,976.96
2018-02-13T01:35:10.834Z,977.10
2018-02-13T01:36:06.048Z,977.01
2018-02-13T01:37:05.713Z,977.09
2018-02-13T01:38:09.990Z,977.18
2018-02-13T01:39:10.930Z,977.18
2018-02-13T01:40:05.661Z,977.01
2018-02-13T01:41:05.816Z,977.04
2018-02-13T01:42:05.041Z,977.12
2018-02-13T01:43:05.871Z,976.95
2018-02-13T01:44:05.385Z,977.06
2018-02-13T01:45:06.056Z,977.12
2018-02-13T01:46:05.500Z,977.12
2018-02-13T01:47:05.152Z,977.12
2018-02-13T01:48:05.371Z,977.09
2018-02-13T01:49:05.341Z,977.14
2018-02-13T01:50:05.967Z,977.31
2018-02-13T01:51:05.756Z,977.20
2018-02-13T01:52:05.037Z,977.25
2018-02-13T01:53:04.986Z,977.11
2018-02-13T01:54:05.528Z,977.14
2018-02-13T01:55:05.022Z,977.19
2018-02-13T01:56:06.183Z,977.11
2018-02-13T01:57:05.456Z,977.11
2018-02-13T01:58:05.827Z,977.14
2018-02-13T01:59:05.458Z,977.14
2018-02-13T02:00:10.530Z,977.19
2018-02-13T02:01:05.520Z,977.11
2018-02-13T02:02:05.468Z,977.02
2018-02-13T02:03:05.256Z,977.13
2018-02-13T02:04:05.235Z,976.99
2018-02-13T02:05:05.250Z,977.08
2018-02-13T02:06:05.165Z,977.10
2018-02-13T02:07:05.694Z,977.08
2018-02-13T02:08:05.114Z,976.99
2018-02-13T02:09:05.620Z,977.21
2018-02-13T02:10:05.177Z,977.05
2018-02-13T02:11:05.813Z,976.96
2018-02-13T02:12:05.171Z,977.07
2018-02-13T02:13:05.035Z,976.99
2018-02-13T02:14:05.511Z,976.99
2018-02-13T02:15:06.205Z,976.99
2018-02-13T02:16:05.433Z,977.10
2018-02-13T02:17:05.766Z,976.91
2018-02-13T02:18:05.463Z,976.99
2018-02-13T02:19:05.215Z,977.04
2018-02-13T02:20:05.787Z,977.02
2018-02-13T02:21:05.942Z,977.10
2018-02-13T02:22:05.370Z,976.96
2018-02-13T02:23:05.350Z,977.07
2018-02-13T02:24:05.542Z,976.90
2018-02-13T02:25:05.040Z,976.99
2018-02-13T02:26:05.557Z,977.12
2018-02-13T02:27:05.507Z,977.23
2018-02-13T02:28:06.101Z,977.15
2018-02-13T02:29:05.671Z,977.07
2018-02-13T02:30:05.963Z,976.98
2018-02-13T02:31:06.061Z,977.07
2018-02-13T02:32:10.044Z,977.04
2018-02-13T02:33:05.208Z,976.96
2018-02-13T02:34:05.726Z,977.18
2018-02-13T02:35:05.865Z,976.98
2018-02-13T02:36:05.589Z,977.09
2018-02-13T02:37:06.113Z,977.04
2018-02-13T02:38:06.012Z,977.12
2018-02-13T02:39:05.602Z,977.01
2018-02-13T02:40:05.173Z,977.12
2018-02-13T02:41:05.640Z,976.98
2018-02-13T02:42:05.438Z,977.01
2018-02-13T02:43:05.187Z,976.98
2018-02-13T02:44:05.396Z,976.98
2018-02-13T02:45:05.195Z,976.90
2018-02-13T02:46:05.474Z,976.90
2018-02-13T02:47:04.991Z,977.09
2018-02-13T02:48:05.775Z,977.09
2018-02-13T02:49:04.974Z,977.01
2018-02-13T02:50:05.798Z,976.98
2018-02-13T02:51:05.045Z,976.95
2018-02-13T02:52:05.999Z,976.95
2018-02-13T02:53:10.238Z,977.01
2018-02-13T02:54:05.799Z,977.06
2018-02-13T02:55:05.542Z,976.95
2018-02-13T02:56:05.772Z,976.90
2018-02-13T02:57:05.848Z,977.06
2018-02-13T02:58:05.809Z,976.93
2018-02-13T02:59:05.122Z,977.01
2018-02-13T03:00:04.989Z,977.06
2018-02-13T03:01:05.149Z,976.95
2018-02-13T03:02:06.023Z,977.01
2018-02-13T03:03:05.385Z,977.03
2018-02-13T03:04:05.750Z,977.17
2018-02-13T03:05:10.512Z,977.01
2018-02-13T03:06:05.783Z,976.90
2018-02-13T03:07:05.352Z,977.01
2018-02-13T03:08:05.346Z,976.92
2018-02-13T03:09:05.962Z,976.98
2018-02-13T03:10:05.704Z,976.87
2018-02-13T03:11:05.643Z,976.95
2018-02-13T03:12:05.613Z,976.84
2018-02-13T03:13:05.494Z,977.11
2018-02-13T03:14:05.549Z,977.09
2018-02-13T03:15:06.095Z,977.03
2018-02-13T03:16:05.816Z,977.00
2018-02-13T03:17:05.094Z,977.03
2018-02-13T03:18:05.446Z,976.89
2018-02-13T03:19:06.041Z,976.97
2018-02-13T03:20:05.201Z,977.11
2018-02-13T03:21:05.366Z,977.06
2018-02-13T03:22:06.259Z,977.11
2018-02-13T03:23:05.776Z,977.00
2018-02-13T03:24:05.093Z,976.95
2018-02-13T03:25:05.695Z,977.00
2018-02-13T03:26:05.039Z,977.06
2018-02-13T03:27:06.003Z,976.95
2018-02-13T03:28:05.420Z,977.17
2018-02-13T03:29:06.165Z,977.00
2018-02-13T03:30:05.343Z,977.03
2018-02-13T03:31:05.924Z,976.97
2018-02-13T03:32:05.100Z,977.05
2018-02-13T03:33:04.977Z,977.06
2018-02-13T03:34:05.251Z,976.92
2018-02-13T03:35:04.951Z,976.97
2018-02-13T03:36:05.972Z,977.05
2018-02-13T03:37:05.457Z,976.97
2018-02-13T03:38:05.384Z,977.00
2018-02-13T03:39:05.879Z,977.03
2018-02-13T03:40:05.414Z,977.08
2018-02-13T03:41:04.946Z,977.08
2018-02-13T03:42:05.977Z,976.89
2018-02-13T03:43:05.912Z,976.94
2018-02-13T03:44:05.776Z,976.94
2018-02-13T03:45:05.281Z,977.00
2018-02-13T03:46:05.437Z,977.00
2018-02-13T03:47:05.042Z,976.83
2018-02-13T03:48:05.450Z,976.83
2018-02-13T03:49:10.891Z,976.97
2018-02-13T03:50:05.788Z,976.94
2018-02-13T03:51:05.637Z,976.97
2018-02-13T03:52:05.035Z,977.02
2018-02-13T03:53:05.205Z,976.89
2018-02-13T03:54:05.259Z,977.08
2018-02-13T03:55:05.097Z,977.02
2018-02-13T03:56:05.423Z,977.05
2018-02-13T03:57:05.124Z,976.94
2018-02-13T03:58:05.393Z,976.86
2018-02-13T03:59:05.460Z,977.08
2018-02-13T04:00:05.866Z,976.94
2018-02-13T04:01:10.561Z,976.94
2018-02-13T04:02:05.726Z,977.02
2018-02-13T04:03:05.250Z,976.89
2018-02-13T04:04:05.741Z,977.02
2018-02-13T04:05:05.680Z,976.89
2018-02-13T04:06:05.684Z,976.94
2018-02-13T04:07:05.069Z,976.97
2018-02-13T04:08:05.719Z,976.89
2018-02-13T04:09:05.508Z,977.00
2018-02-13T04:10:05.208Z,976.91
2018-02-13T04:11:04.989Z,976.89
2018-02-13T04:12:05.769Z,976.91
2018-02-13T04:13:05.192Z,976.83
2018-02-13T04:14:06.074Z,976.91
2018-02-13T04:15:05.230Z,976.89
2018-02-13T04:16:05.254Z,976.86
2018-02-13T04:17:05.699Z,976.89
2018-02-13T04:18:05.489Z,976.91
2018-02-13T04:19:05.958Z,977.11
2018-02-13T04:20:05.046Z,976.80
2018-02-13T04:21:05.771Z,976.94
2018-02-13T04:22:05.279Z,976.89
2018-02-13T04:23:05.793Z,976.83
2018-02-13T04:24:05.670Z,977.00
2018-02-13T04:25:05.711Z,976.92
2018-02-13T04:26:05.579Z,976.97
2018-02-13T04:27:05.960Z,976.94
2018-02-13T04:28:05.857Z,976.78
2018-02-13T04:29:05.775Z,976.91
2018-02-13T04:30:05.244Z,976.91
2018-02-13T04:31:05.108Z,976.89
2018-02-13T04:32:05.862Z,976.78
2018-02-13T04:33:05.263Z,976.83
2018-02-13T04:34:05.240Z,976.89
2018-02-13T04:35:05.703Z,977.11
2018-02-13T04:36:05.417Z,976.89
2018-02-13T04:37:05.418Z,976.83
2018-02-13T04:38:05.948Z,976.78
2018-02-13T04:39:05.781Z,976.70
2018-02-13T04:40:05.936Z,976.80
2018-02-13T04:41:05.966Z,976.73
2018-02-13T04:42:05.036Z,976.83
2018-02-13T04:43:05.439Z,976.91
2018-02-13T04:44:05.329Z,976.89
2018-02-13T04:45:05.601Z,976.86
2018-02-13T04:46:05.991Z,976.75
2018-02-13T04:47:05.618Z,976.75
2018-02-13T04:48:05.884Z,976.75
2018-02-13T04:49:10.719Z,976.86
2018-02-13T04:50:05.895Z,976.78
2018-02-13T04:51:05.500Z,976.78
2018-02-13T04:52:05.410Z,976.86
2018-02-13T04:53:05.175Z,976.81
2018-02-13T04:54:05.458Z,976.83
2018-02-13T04:55:11.007Z,976.83
2018-02-13T04:56:05.869Z,976.83
2018-02-13T04:57:05.439Z,976.78
2018-02-13T04:58:05.823Z,976.94
2018-02-13T04:59:05.965Z,976.86
2018-02-13T05:00:05.079Z,976.81
2018-02-13T05:01:05.610Z,976.68
2018-02-13T05:02:10.119Z,976.86
2018-02-13T05:03:05.244Z,976.73
2018-02-13T05:04:05.578Z,976.86
2018-02-13T05:05:05.688Z,976.81
2018-02-13T05:06:05.689Z,976.89
2018-02-13T05:07:05.780Z,976.84
2018-02-13T05:08:05.855Z,976.86
2018-02-13T05:09:06.016Z,976.92
2018-02-13T05:10:05.007Z,976.81
2018-02-13T05:11:05.076Z,976.92
2018-02-13T05:12:05.563Z,976.92
2018-02-13T05:13:05.419Z,976.86
2018-02-13T05:14:05.894Z,976.84
2018-02-13T05:15:10.512Z,976.75
2018-02-13T05:16:05.007Z,976.86
2018-02-13T05:17:05.547Z,976.78
2018-02-13T05:18:05.267Z,976.89
2018-02-13T05:19:05.756Z,976.84
2018-02-13T05:20:11.075Z,976.89
2018-02-13T05:21:06.189Z,976.89
2018-02-13T05:22:05.756Z,976.78
2018-02-13T05:23:05.598Z,976.92
2018-02-13T05:24:05.688Z,976.84
2018-02-13T05:25:05.620Z,976.89
2018-02-13T05:26:05.119Z,976.78
2018-02-13T05:27:05.221Z,976.84
2018-02-13T05:28:05.475Z,976.74
2018-02-13T05:29:05.391Z,976.84
2018-02-13T05:30:05.175Z,976.71
2018-02-13T05:31:05.276Z,976.81
2018-02-13T05:32:05.203Z,976.76
2018-02-13T05:33:05.620Z,976.66
2018-02-13T05:34:05.779Z,976.81
2018-02-13T05:35:05.007Z,976.71
2018-02-13T05:36:05.379Z,976.71
2018-02-13T05:37:05.871Z,976.92
2018-02-13T05:38:05.225Z,976.74
2018-02-13T05:39:05.119Z,976.71
2018-02-13T05:40:05.641Z,976.76
2018-02-13T05:41:10.305Z,976.87
2018-02-13T05:42:05.381Z,976.82
2018-02-13T05:43:05.707Z,976.66
2018-02-13T05:44:05.256Z,976.76
2018-02-13T05:45:05.337Z,976.98
2018-02-13T05:46:05.402Z,976.90
2018-02-13T05:47:05.948Z,976.84
2018-02-13T05:48:05.888Z,976.82
2018-02-13T05:49:05.349Z,976.95
2018-02-13T05:50:05.460Z,976.87
2018-02-13T05:51:05.054Z,976.87
2018-02-13T05:52:05.210Z,976.74
2018-02-13T05:53:05.295Z,976.93
2018-02-13T05:54:05.901Z,976.90
2018-02-13T05:55:05.512Z,976.96
2018-02-13T05:56:05.923Z,976.96
2018-02-13T05:57:05.220Z,977.01
2018-02-13T05:58:05.460Z,976.87
2018-02-13T05:59:05.124Z,976.90
2018-02-13T06:00:05.870Z,976.90
2018-02-13T06:01:05.603Z,976.82
2018-02-13T06:02:05.267Z,976.93
2018-02-13T06:03:05.347Z,976.96
2018-02-13T06:04:05.217Z,976.88
2018-02-13T06:05:05.273Z,976.91
2018-02-13T06:06:04.998Z,976.82
2018-02-13T06:07:05.680Z,976.96
2018-02-13T06:08:05.884Z,976.96
2018-02-13T06:09:05.511Z,976.83
2018-02-13T06:10:05.916Z,976.83
2018-02-13T06:11:05.090Z,976.80
2018-02-13T06:12:05.322Z,976.91
2018-02-13T06:13:08.217Z,976.88
2018-02-13T06:14:05.224Z,976.94
2018-02-13T06:15:05.078Z,977.02
2018-02-13T06:16:05.634Z,976.86
2018-02-13T06:17:05.996Z,976.73
2018-02-13T06:18:05.113Z,976.78
2018-02-13T06:19:05.741Z,976.86
2018-02-13T06:20:05.877Z,976.73
2018-02-13T06:21:05.652Z,976.94
2018-02-13T06:22:05.093Z,976.86
2018-02-13T06:23:06.047Z,976.89
2018-02-13T06:24:05.375Z,976.81
2018-02-13T06:25:05.110Z,976.81
2018-02-13T06:26:05.170Z,976.73
2018-02-13T06:27:05.706Z,976.71
2018-02-13T06:28:05.733Z,976.87
2018-02-13T06:29:05.918Z,976.89
2018-02-13T06:30:05.584Z,976.76
2018-02-13T06:31:05.662Z,976.84
2018-02-13T06:32:10.153Z,976.79
2018-02-13T06:33:05.230Z,976.81
2018-02-13T06:34:05.329Z,976.98
2018-02-13T06:35:05.747Z,976.90
2018-02-13T06:36:05.342Z,976.82
2018-02-13T06:37:05.199Z,976.90
2018-02-13T06:38:05.353Z,976.74
2018-02-13T06:39:05.766Z,976.74
2018-02-13T06:40:05.154Z,976.79
2018-02-13T06:41:05.404Z,976.82
2018-02-13T06:42:06.041Z,976.93
2018-02-13T06:43:06.019Z,976.63
2018-02-13T06:44:05.475Z,976.98
2018-02-13T06:45:05.220Z,976.74
2018-02-13T06:46:05.168Z,976.82
2018-02-13T06:47:05.687Z,976.82
2018-02-13T06:48:05.910Z,976.74
2018-02-13T06:49:05.166Z,976.82
2018-02-13T06:50:05.908Z,976.85
2018-02-13T06:51:05.065Z,976.82
2018-02-13T06:52:05.240Z,976.88
2018-02-13T06:53:05.870Z,976.90
2018-02-13T06:54:06.170Z,977.01
2018-02-13T06:55:05.668Z,976.93
2018-02-13T06:56:10.353Z,976.96
2018-02-13T06:57:05.377Z,976.85
2018-02-13T06:58:10.237Z,976.88
2018-02-13T06:59:05.369Z,976.85
2018-02-13T07:00:05.962Z,976.82
2018-02-13T07:01:05.614Z,976.93
2018-02-13T07:02:06.045Z,976.77
2018-02-13T07:03:05.132Z,976.99
2018-02-13T07:04:05.389Z,976.96
2018-02-13T07:05:05.839Z,976.85
2018-02-13T07:06:05.321Z,976.93
2018-02-13T07:07:05.581Z,976.88
2018-02-13T07:08:05.365Z,976.96
2018-02-13T07:09:05.767Z,976.88
2018-02-13T07:10:05.579Z,976.88
2018-02-13T07:11:06.021Z,976.74
2018-02-13T07:12:05.462Z,976.93
2018-02-13T07:13:05.539Z,976.90
2018-02-13T07:14:05.424Z,976.74
2018-02-13T07:15:05.035Z,976.98
2018-02-13T07:16:05.179Z,977.04
2018-02-13T07:17:06.241Z,976.98
2018-02-13T07:18:05.866Z,976.93
2018-02-13T07:19:05.225Z,976.95
2018-02-13T07:20:05.107Z,976.97
2018-02-13T07:21:11.088Z,977.00
2018-02-13T07:22:10.171Z,977.05
2018-02-13T07:23:05.340Z,977.02
2018-02-13T07:24:05.532Z,977.02
2018-02-13T07:25:05.374Z,977.01
2018-02-13T07:26:05.417Z,977.04
2018-02-13T07:27:05.583Z,977.01
2018-02-13T07:28:05.134Z,976.92
2018-02-13T07:29:05.553Z,976.92
2018-02-13T07:30:06.197Z,977.00
2018-02-13T07:31:05.350Z,976.94
2018-02-13T07:32:06.061Z,977.00
2018-02-13T07:33:05.384Z,976.97
2018-02-13T07:34:05.062Z,976.99
2018-02-13T07:35:05.396Z,976.88
2018-02-13T07:36:05.318Z,977.01
2018-02-13T07:37:05.079Z,976.84
2018-02-13T07:38:05.226Z,976.90
2018-02-13T07:39:05.577Z,976.87
2018-02-13T07:40:05.552Z,976.92
2018-02-13T07:41:06.181Z,977.03
2018-02-13T07:42:05.303Z,976.94
2018-02-13T07:48:05.220Z,977.04
2018-02-13T07:49:05.978Z,976.98
2018-02-13T07:50:05.234Z,976.87
2018-02-13T07:51:05.371Z,976.98
2018-02-13T07:52:05.589Z,976.97
2018-02-13T07:53:05.030Z,977.08
2018-02-13T07:54:06.036Z,977.00
2018-02-13T07:55:05.772Z,976.94
2018-02-13T07:56:05.476Z,976.96
2018-02-13T07:57:05.363Z,977.16
2018-02-13T07:58:05.378Z,977.15
2018-02-13T07:59:05.845Z,976.96
2018-02-13T08:00:05.469Z,976.90
2018-02-13T08:01:05.501Z,977.03
2018-02-13T08:02:05.685Z,977.00
2018-02-13T08:03:05.731Z,977.06
2018-02-13T08:04:05.701Z,977.19
2018-02-13T08:05:05.942Z,977.00
2018-02-13T08:06:05.498Z,977.11
2018-02-13T08:07:06.009Z,977.14
2018-02-13T08:08:05.674Z,977.10
2018-02-13T08:09:05.823Z,976.94
2018-02-13T08:10:05.397Z,977.05
2018-02-13T08:11:05.133Z,977.04
2018-02-13T08:12:05.730Z,977.18
2018-02-13T08:13:05.691Z,976.90
2018-02-13T08:14:05.029Z,976.95
2018-02-13T08:15:10.884Z,976.95
2018-02-13T08:16:05.980Z,977.00
2018-02-13T08:17:05.370Z,976.94
2018-02-13T08:18:05.497Z,977.08
2018-02-13T08:19:05.105Z,977.00
2018-02-13T08:20:05.991Z,976.91
2018-02-13T08:21:05.615Z,976.94
2018-02-13T08:22:05.488Z,977.07
2018-02-13T08:23:05.678Z,977.01
2018-02-13T08:24:05.868Z,976.90
2018-02-13T08:25:05.973Z,976.98
2018-02-13T08:26:05.236Z,977.15
2018-02-13T08:27:06.766Z,977.06
2018-02-13T08:28:05.637Z,976.98
2018-02-13T08:29:05.560Z,977.03
2018-02-13T08:30:05.910Z,977.00
2018-02-13T08:31:05.686Z,977.03
2018-02-13T08:32:06.008Z,977.05
2018-02-13T08:33:10.200Z,976.97
2018-02-13T08:34:05.089Z,977.08
2018-02-13T08:35:06.185Z,977.10
2018-02-13T08:36:05.266Z,977.05
2018-02-13T08:37:05.728Z,977.10
2018-02-13T08:38:05.854Z,977.16
2018-02-13T08:39:05.586Z,977.18
2018-02-13T08:40:05.274Z,977.02
2018-02-13T08:41:05.055Z,977.16
2018-02-13T08:42:05.899Z,977.13
2018-02-13T08:43:05.022Z,977.10
2018-02-13T08:44:05.549Z,977.12
2018-02-13T08:45:05.004Z,977.07
2018-02-13T08:46:05.716Z,977.15
2018-02-13T08:47:05.375Z,977.04
2018-02-13T08:48:05.864Z,977.06
2018-02-13T08:49:05.547Z,977.09
2018-02-13T08:50:05.593Z,977.06
2018-02-13T08:51:05.225Z,977.11
2018-02-13T08:52:05.762Z,977.17
2018-02-13T08:53:06.148Z,977.06
2018-02-13T08:54:05.255Z,977.11
2018-02-13T08:55:05.078Z,977.08
2018-02-13T08:56:05.461Z,977.11
2018-02-13T08:57:05.776Z,977.08
2018-02-13T08:58:05.691Z,977.05
2018-02-13T08:59:05.816Z,977.05
2018-02-13T09:00:05.618Z,977.00
2018-02-13T09:01:05.726Z,977.05
2018-02-13T09:02:05.262Z,977.08
2018-02-13T09:03:05.628Z,977.08
2018-02-13T09:04:05.818Z,977.02
2018-02-13T09:05:05.787Z,977.13
2018-02-13T09:06:05.933Z,977.05
2018-02-13T09:07:05.595Z,977.19
2018-02-13T09:08:05.746Z,977.16
2018-02-13T09:09:05.399Z,977.05
2018-02-13T09:10:05.943Z,977.24
2018-02-13T09:11:05.512Z,977.02
2018-02-13T09:12:05.399Z,976.88
2018-02-13T09:13:05.354Z,977.01
2018-02-13T09:14:05.323Z,977.01
2018-02-13T09:15:05.873Z,977.12
2018-02-13T09:16:05.442Z,977.07
2018-02-13T09:17:05.606Z,977.07
2018-02-13T09:18:05.906Z,977.15
2018-02-13T09:19:05.471Z,977.12
2018-02-13T09:20:05.028Z,977.04
2018-02-13T09:21:05.983Z,977.12
2018-02-13T09:22:05.931Z,977.04
2018-02-13T09:23:05.455Z,976.98
2018-02-13T09:24:05.439Z,976.95
2018-02-13T09:25:05.580Z,977.14
2018-02-13T09:26:05.109Z,976.92
2018-02-13T09:27:05.804Z,977.00
2018-02-13T09:28:05.437Z,976.89
2018-02-13T09:29:04.982Z,977.00
2018-02-13T09:30:05.409Z,976.97
2018-02-13T09:31:05.118Z,977.00
2018-02-13T09:32:05.831Z,976.94
2018-02-13T09:33:05.661Z,977.02
2018-02-13T09:34:05.581Z,976.86
2018-02-13T09:35:05.388Z,976.97
2018-02-13T09:36:06.189Z,976.91
2018-02-13T09:37:05.191Z,977.05
2018-02-13T09:38:04.963Z,976.93
2018-02-13T09:39:05.132Z,976.82
2018-02-13T09:40:05.073Z,976.88
2018-02-13T09:41:05.718Z,976.88
2018-02-13T09:42:06.305Z,976.90
2018-02-13T09:43:05.497Z,976.96
2018-02-13T09:44:10.461Z,976.85
2018-02-13T09:45:05.146Z,977.04
2018-02-13T09:46:05.691Z,976.93
2018-02-13T09:47:05.908Z,977.07
2018-02-13T09:48:05.729Z,976.95
2018-02-13T09:49:06.135Z,976.87
2018-02-13T09:50:05.349Z,976.79
2018-02-13T09:51:05.049Z,976.84
2018-02-13T09:52:05.157Z,976.98
2018-02-13T09:53:05.969Z,976.87
2018-02-13T09:54:05.567Z,976.93
2018-02-13T09:55:09.928Z,976.87
2018-02-13T09:56:05.166Z,976.98
2018-02-13T09:57:05.701Z,976.90
2018-02-13T09:58:05.054Z,976.90
2018-02-13T09:59:05.531Z,976.81
2018-02-13T10:00:06.520Z,976.92
2018-02-13T10:01:05.458Z,976.84
2018-02-13T10:02:06.473Z,976.86
2018-02-13T10:03:05.977Z,976.73
2018-02-13T10:04:05.098Z,976.95
2018-02-13T10:05:05.392Z,976.89
2018-02-13T10:06:10.838Z,976.92
2018-02-13T10:07:05.989Z,976.78
2018-02-13T10:08:05.560Z,976.83
2018-02-13T10:09:05.689Z,976.88
2018-02-13T10:10:05.902Z,976.80
2018-02-13T10:11:05.816Z,976.85
2018-02-13T10:12:05.938Z,976.80
2018-02-13T10:13:05.472Z,976.91
2018-02-13T10:14:05.899Z,976.85
2018-02-13T10:15:05.689Z,976.69
2018-02-13T10:16:04.985Z,976.74
2018-02-13T10:17:05.722Z,976.82
2018-02-13T10:18:05.765Z,976.74
2018-02-13T10:19:05.825Z,976.74
2018-02-13T10:20:10.205Z,976.76
2018-02-13T10:21:05.019Z,976.87
2018-02-13T10:22:05.783Z,976.76
2018-02-13T10:23:05.108Z,976.89
2018-02-13T10:24:05.786Z,976.65
2018-02-13T10:25:05.614Z,976.68
2018-02-13T10:26:05.430Z,976.78
2018-02-13T10:27:05.170Z,976.78
2018-02-13T10:28:05.358Z,976.68
2018-02-13T10:29:05.946Z,976.65
2018-02-13T10:30:06.432Z,976.68
2018-02-13T10:31:05.353Z,976.62
2018-02-13T10:32:05.151Z,976.67
2018-02-13T10:33:05.758Z,976.59
2018-02-13T10:34:06.014Z,976.67
2018-02-13T10:35:05.284Z,976.67
2018-02-13T10:36:05.989Z,976.67
2018-02-13T10:37:05.470Z,976.53
2018-02-13T10:38:05.694Z,976.72
2018-02-13T10:39:05.081Z,976.58
2018-02-13T10:40:05.623Z,976.61
2018-02-13T10:41:05.258Z,976.58
2018-02-13T10:42:06.013Z,976.55
2018-02-13T10:43:05.359Z,976.49
2018-02-13T10:44:05.023Z,976.55
2018-02-13T10:45:06.050Z,976.49
2018-02-13T10:46:05.775Z,976.35
2018-02-13T10:47:05.853Z,976.43
2018-02-13T10:48:05.215Z,976.43
2018-02-13T10:49:05.724Z,976.32
2018-02-13T10:50:05.918Z,976.40
2018-02-13T10:51:05.231Z,976.35
2018-02-13T10:52:05.682Z,976.29
2018-02-13T10:53:10.895Z,976.51
2018-02-13T10:54:05.662Z,976.37
2018-02-13T10:55:05.797Z,976.37
2018-02-13T10:56:05.560Z,976.34
2018-02-13T10:57:05.040Z,976.40
2018-02-13T10:58:05.784Z,976.28
2018-02-13T10:59:05.779Z,976.37
2018-02-13T11:00:05.486Z,976.48
2018-02-13T11:01:05.883Z,976.28
2018-02-13T11:02:10.865Z,976.28
2018-02-13T11:03:05.166Z,976.39
2018-02-13T11:04:05.264Z,976.45
2018-02-13T11:05:05.434Z,976.28
2018-02-13T11:06:05.882Z,976.25
2018-02-13T11:07:05.284Z,976.25
2018-02-13T11:08:05.618Z,976.36
2018-02-13T11:09:05.662Z,976.25
2018-02-13T11:10:05.718Z,976.30
2018-02-13T11:11:05.888Z,976.28
2018-02-13T11:12:05.224Z,976.19
2018-02-13T11:13:05.888Z,976.30
2018-02-13T11:14:05.193Z,976.30
2018-02-13T11:15:05.711Z,976.19
2018-02-13T11:16:05.203Z,976.13
2018-02-13T11:17:05.774Z,976.36
2018-02-13T11:18:05.962Z,976.25
2018-02-13T11:19:05.578Z,976.27
2018-02-13T11:20:05.855Z,976.27
2018-02-13T11:21:05.532Z,976.30
2018-02-13T11:22:06.478Z,976.24
2018-02-13T11:23:05.139Z,976.16
2018-02-13T11:24:05.910Z,976.21
2018-02-13T11:25:06.161Z,976.24
2018-02-13T11:26:05.572Z,976.15
2018-02-13T11:27:05.482Z,976.18
2018-02-13T11:28:05.094Z,976.10
2018-02-13T11:29:05.505Z,976.01
2018-02-13T11:30:05.076Z,976.18
2018-02-13T11:31:05.244Z,976.21
2018-02-13T11:32:06.240Z,976.15
2018-02-13T11:33:05.228Z,976.09
2018-02-13T11:34:05.533Z,976.09
2018-02-13T11:35:05.251Z,976.15
2018-02-13T11:36:05.417Z,976.04
2018-02-13T11:37:05.766Z,976.01
2018-02-13T11:38:05.235Z,975.95
2018-02-13T11:39:05.420Z,976.09
2018-02-13T11:40:05.098Z,976.09
2018-02-13T11:41:05.952Z,976.01
2018-02-13T11:42:06.924Z,976.00
2018-02-13T11:43:10.275Z,976.01
2018-02-13T11:44:05.020Z,976.00
2018-02-13T11:45:05.732Z,975.95
2018-02-13T11:46:05.488Z,975.81
2018-02-13T11:47:05.918Z,975.95
2018-02-13T11:48:05.402Z,975.83
2018-02-13T11:49:06.109Z,975.92
2018-02-13T11:50:06.176Z,975.92
2018-02-13T11:51:10.519Z,975.83
2018-02-13T11:52:05.528Z,975.80
2018-02-13T11:53:05.021Z,975.86
2018-02-13T11:54:06.040Z,975.83
2018-02-13T11:55:05.408Z,975.83
2018-02-13T11:56:05.781Z,975.77
2018-02-13T11:57:05.797Z,975.83
2018-02-13T11:58:05.102Z,975.80
2018-02-13T11:59:05.315Z,975.71
2018-02-13T12:00:05.812Z,975.69
2018-02-13T12:01:05.395Z,975.69
2018-02-13T12:02:05.324Z,975.68
2018-02-13T12:03:05.513Z,975.74
2018-02-13T12:04:05.039Z,975.80
2018-02-13T12:05:05.689Z,975.66
2018-02-13T12:06:05.299Z,975.80
2018-02-13T12:07:05.743Z,975.68
2018-02-13T12:08:05.446Z,975.68
2018-02-13T12:09:05.159Z,975.57
2018-02-13T12:10:05.530Z,975.60
2018-02-13T12:11:05.396Z,975.60
2018-02-13T12:12:05.286Z,975.49
2018-02-13T12:13:05.556Z,975.54
2018-02-13T12:14:05.457Z,975.57
2018-02-13T12:15:05.061Z,975.60
2018-02-13T12:16:05.559Z,975.57
2018-02-13T12:17:05.123Z,975.51
2018-02-13T12:18:05.175Z,975.51
2018-02-13T12:19:05.083Z,975.45
2018-02-13T12:20:05.836Z,975.40
2018-02-13T12:21:05.704Z,975.37
2018-02-13T12:22:05.920Z,975.51
2018-02-13T12:23:05.810Z,975.48
2018-02-13T12:24:05.583Z,975.37
2018-02-13T12:25:05.468Z,975.36
2018-02-13T12:26:05.088Z,975.42
2018-02-13T12:27:06.050Z,975.36
2018-02-13T12:28:05.178Z,975.36
2018-02-13T12:29:05.476Z,975.33
2018-02-13T12:30:05.515Z,975.39
2018-02-13T12:31:05.725Z,975.39
2018-02-13T12:32:05.208Z,975.42
2018-02-13T12:33:05.904Z,975.48